Station Historical Data
Daily Summary for July 17, 2017 Units:  Both    English   Metric
« Previous Day
Next Day »
Daily Weekly Monthly Yearly Custom
  High: Low: Average:
Temperature: 77.5 °F /  25.3 °C 65.4 °F /  18.6 °C 71.7 °F /  22.1 °C
Dew Point: 67.9 °F /  19.9 °C 61.7 °F /  16.5 °C 64.4 °F /  18 °C
Humidity: 93% 60% 79%
Wind Speed: 15.0mph /  24.1km/h - 3.3mph /  5.3km/h
Wind Gust: 18.0mph /  29km/h - -
Wind- - SW
Pressure: 30.03 in /  1016.8 hPa 29.91 in /  1012.8 hPa -
Precipitation: 0.00 in /  0 mm    
Historical Graphs
 
 
Tabular Data for July 17, 2017
Time Temperature Dew Point Pressure Wind Wind Speed Wind Gust Humidity Rainfall Rate (Hourly)
00:04 69.2 °F /  20.7 °C 64.5 °F /  18.1 °C 29.93in /  1013.4hPa SE 2.0mph /  3.2km/h 4.0mph /  6.4km/h 85% 0.00in /  0mm
00:09 69.2 °F /  20.7 °C 64.5 °F /  18.1 °C 29.93in /  1013.4hPa SE 3.0mph /  4.8km/h 7.0mph /  11.3km/h 85% 0.00in /  0mm
00:14 69.3 °F /  20.7 °C 64.9 °F /  18.3 °C 29.93in /  1013.4hPa ESE 4.0mph /  6.4km/h 4.0mph /  6.4km/h 86% 0.00in /  0mm
00:19 69.3 °F /  20.7 °C 64.9 °F /  18.3 °C 29.93in /  1013.4hPa SE 2.0mph /  3.2km/h 7.0mph /  11.3km/h 86% 0.00in /  0mm
00:24 69.1 °F /  20.6 °C 64.7 °F /  18.2 °C 29.93in /  1013.4hPa SSE 4.0mph /  6.4km/h 6.0mph /  9.7km/h 86% 0.00in /  0mm
00:29 69.1 °F /  20.6 °C 64.7 °F /  18.2 °C 29.92in /  1013.1hPa ESE 5.0mph /  8km/h 6.0mph /  9.7km/h 86% 0.00in /  0mm
00:34 68.9 °F /  20.5 °C 64.5 °F /  18.1 °C 29.92in /  1013.1hPa SSE 2.0mph /  3.2km/h 6.0mph /  9.7km/h 86% 0.00in /  0mm
00:39 68.8 °F /  20.4 °C 64.4 °F /  18 °C 29.93in /  1013.4hPa SE 2.0mph /  3.2km/h 5.0mph /  8km/h 86% 0.00in /  0mm
00:44 68.6 °F /  20.3 °C 64.6 °F /  18.1 °C 29.92in /  1013.1hPa ESE 2.0mph /  3.2km/h 4.0mph /  6.4km/h 87% 0.00in /  0mm
00:49 68.6 °F /  20.3 °C 64.6 °F /  18.1 °C 29.92in /  1013.1hPa ESE 2.0mph /  3.2km/h 5.0mph /  8km/h 87% 0.00in /  0mm
00:54 68.5 °F /  20.3 °C 64.5 °F /  18.1 °C 29.92in /  1013.1hPa ESE 1.0mph /  1.6km/h 8.0mph /  12.9km/h 87% 0.00in /  0mm
00:59 68.5 °F /  20.3 °C 64.5 °F /  18.1 °C 29.93in /  1013.4hPa ESE 2.0mph /  3.2km/h 5.0mph /  8km/h 87% 0.00in /  0mm
01:04 68.6 °F /  20.3 °C 64.6 °F /  18.1 °C 29.93in /  1013.4hPa SE 2.0mph /  3.2km/h 5.0mph /  8km/h 87% 0.00in /  0mm
01:09 68.6 °F /  20.3 °C 64.6 °F /  18.1 °C 29.92in /  1013.1hPa Calm   6.0mph /  9.7km/h 87% 0.00in /  0mm
01:14 68.6 °F /  20.3 °C 64.2 °F /  17.9 °C 29.92in /  1013.1hPa SE 2.0mph /  3.2km/h 6.0mph /  9.7km/h 86% 0.00in /  0mm
01:19 68.6 °F /  20.3 °C 64.2 °F /  17.9 °C 29.92in /  1013.1hPa SE 2.0mph /  3.2km/h 8.0mph /  12.9km/h 86% 0.00in /  0mm
01:24 68.6 °F /  20.3 °C 64.2 °F /  17.9 °C 29.93in /  1013.4hPa SE 2.0mph /  3.2km/h 8.0mph /  12.9km/h 86% 0.00in /  0mm
01:29 68.7 °F /  20.4 °C 64.3 °F /  17.9 °C 29.93in /  1013.4hPa SSE 2.0mph /  3.2km/h 5.0mph /  8km/h 86% 0.01in /  0.25mm
01:34 68.7 °F /  20.4 °C 64.3 °F /  17.9 °C 29.93in /  1013.4hPa Calm   4.0mph /  6.4km/h 86% 0.01in /  0.25mm
01:39 68.6 °F /  20.3 °C 64.2 °F /  17.9 °C 29.94in /  1013.8hPa Calm     86% 0.01in /  0.25mm
01:44 68.6 °F /  20.3 °C 64.2 °F /  17.9 °C 29.94in /  1013.8hPa SE 2.0mph /  3.2km/h 2.0mph /  3.2km/h 86% 0.03in /  0.76mm
01:49 68.5 °F /  20.3 °C 64.5 °F /  18.1 °C 29.94in /  1013.8hPa Calm   2.0mph /  3.2km/h 87% 0.04in /  1.02mm
01:54 68.2 °F /  20.1 °C 64.2 °F /  17.9 °C 29.93in /  1013.4hPa ENE 2.0mph /  3.2km/h 3.0mph /  4.8km/h 87% 0.06in /  1.52mm
01:59 68.1 °F /  20.1 °C 64.4 °F /  18 °C 29.92in /  1013.1hPa East 3.0mph /  4.8km/h 5.0mph /  8km/h 88% 0.06in /  1.52mm
02:04 68.0 °F /  20 °C 64.3 °F /  17.9 °C 29.93in /  1013.4hPa ENE 2.0mph /  3.2km/h 5.0mph /  8km/h 88% 0.06in /  1.52mm
02:09 67.9 °F /  19.9 °C 64.5 °F /  18.1 °C 29.93in /  1013.4hPa ENE 1.0mph /  1.6km/h 5.0mph /  8km/h 89% 0.06in /  1.52mm
02:14 67.7 °F /  19.8 °C 64.3 °F /  17.9 °C 29.92in /  1013.1hPa Calm   2.0mph /  3.2km/h 89% 0.06in /  1.52mm
02:19 67.6 °F /  19.8 °C 64.2 °F /  17.9 °C 29.92in /  1013.1hPa Calm     89% 0.06in /  1.52mm
02:24 67.5 °F /  19.7 °C 64.5 °F /  18.1 °C 29.92in /  1013.1hPa Calm     90% 0.06in /  1.52mm
02:29 67.4 °F /  19.7 °C 64.4 °F /  18 °C 29.92in /  1013.1hPa Calm     90% 0.05in /  1.27mm
02:34 67.3 °F /  19.6 °C 64.3 °F /  17.9 °C 29.92in /  1013.1hPa Calm     90% 0.05in /  1.27mm
02:39 67.2 °F /  19.6 °C 64.2 °F /  17.9 °C 29.92in /  1013.1hPa Calm     90% 0.05in /  1.27mm
02:44 67.1 °F /  19.5 °C 64.1 °F /  17.8 °C 29.92in /  1013.1hPa Calm     90% 0.03in /  0.76mm
02:49 67.0 °F /  19.4 °C 64.0 °F /  17.8 °C 29.91in /  1012.8hPa Calm     90% 0.02in /  0.51mm
02:54 67.0 °F /  19.4 °C 64.0 °F /  17.8 °C 29.91in /  1012.8hPa Calm     90% 0.00in /  0mm
02:59 67.0 °F /  19.4 °C 64.0 °F /  17.8 °C 29.91in /  1012.8hPa Calm     90% 0.00in /  0mm
03:04 66.9 °F /  19.4 °C 64.2 °F /  17.9 °C 29.91in /  1012.8hPa Calm     91% 0.01in /  0.25mm
03:09 67.0 °F /  19.4 °C 64.3 °F /  17.9 °C 29.91in /  1012.8hPa Calm     91% 0.01in /  0.25mm
03:14 67.0 °F /  19.4 °C 64.3 °F /  17.9 °C 29.91in /  1012.8hPa Calm     91% 0.01in /  0.25mm
03:19 67.0 °F /  19.4 °C 64.3 °F /  17.9 °C 29.91in /  1012.8hPa Calm     91% 0.01in /  0.25mm
03:24 67.1 °F /  19.5 °C 64.4 °F /  18 °C 29.91in /  1012.8hPa Calm     91% 0.01in /  0.25mm
03:29 67.1 °F /  19.5 °C 64.4 °F /  18 °C 29.91in /  1012.8hPa Calm     91% 0.01in /  0.25mm
03:34 67.1 °F /  19.5 °C 64.4 °F /  18 °C 29.91in /  1012.8hPa Calm     91% 0.01in /  0.25mm
03:39 67.2 °F /  19.6 °C 64.5 °F /  18.1 °C 29.91in /  1012.8hPa Calm     91% 0.01in /  0.25mm
03:44 67.1 °F /  19.5 °C 64.4 °F /  18 °C 29.91in /  1012.8hPa Calm     91% 0.01in /  0.25mm
03:49 67.0 °F /  19.4 °C 64.3 °F /  17.9 °C 29.91in /  1012.8hPa Calm     91% 0.01in /  0.25mm
03:54 66.8 °F /  19.3 °C 64.1 °F /  17.8 °C 29.92in /  1013.1hPa Calm     91% 0.01in /  0.25mm
03:59 66.7 °F /  19.3 °C 64.0 °F /  17.8 °C 29.91in /  1012.8hPa Calm     91% 0.01in /  0.25mm
04:04 66.5 °F /  19.2 °C 63.8 °F /  17.7 °C 29.91in /  1012.8hPa Calm     91% 0.00in /  0mm
04:09 66.5 °F /  19.2 °C 64.1 °F /  17.8 °C 29.92in /  1013.1hPa Calm     92% 0.00in /  0mm
04:14 66.4 °F /  19.1 °C 64.0 °F /  17.8 °C 29.92in /  1013.1hPa Calm   4.0mph /  6.4km/h 92% 0.00in /  0mm
04:19 66.4 °F /  19.1 °C 64.0 °F /  17.8 °C 29.92in /  1013.1hPa Calm     92% 0.00in /  0mm
04:24 66.3 °F /  19.1 °C 63.9 °F /  17.7 °C 29.91in /  1012.8hPa Calm     92% 0.00in /  0mm
04:29 66.3 °F /  19.1 °C 63.9 °F /  17.7 °C 29.92in /  1013.1hPa Calm     92% 0.00in /  0mm
04:34 66.3 °F /  19.1 °C 63.9 °F /  17.7 °C 29.92in /  1013.1hPa Calm     92% 0.00in /  0mm
04:39 66.3 °F /  19.1 °C 63.9 °F /  17.7 °C 29.91in /  1012.8hPa Calm     92% 0.00in /  0mm
04:44 66.2 °F /  19 °C 63.8 °F /  17.7 °C 29.91in /  1012.8hPa Calm     92% 0.00in /  0mm
04:49 66.1 °F /  18.9 °C 63.7 °F /  17.6 °C 29.91in /  1012.8hPa Calm     92% 0.00in /  0mm
04:54 65.9 °F /  18.8 °C 63.5 °F /  17.5 °C 29.91in /  1012.8hPa Calm     92% 0.00in /  0mm
04:59 65.9 °F /  18.8 °C 63.5 °F /  17.5 °C 29.91in /  1012.8hPa Calm     92% 0.00in /  0mm
05:04 65.9 °F /  18.8 °C 63.5 °F /  17.5 °C 29.91in /  1012.8hPa Calm     92% 0.00in /  0mm
05:09 66.0 °F /  18.9 °C 63.6 °F /  17.6 °C 29.92in /  1013.1hPa Calm     92% 0.00in /  0mm
05:14 66.0 °F /  18.9 °C 63.6 °F /  17.6 °C 29.92in /  1013.1hPa Calm     92% 0.00in /  0mm
05:19 65.9 °F /  18.8 °C 63.5 °F /  17.5 °C 29.91in /  1012.8hPa Calm     92% 0.00in /  0mm
05:24 65.8 °F /  18.8 °C 63.4 °F /  17.4 °C 29.91in /  1012.8hPa Calm     92% 0.00in /  0mm
05:29 65.8 °F /  18.8 °C 63.4 °F /  17.4 °C 29.92in /  1013.1hPa Calm     92% 0.00in /  0mm
05:34 65.5 °F /  18.6 °C 63.1 °F /  17.3 °C 29.92in /  1013.1hPa Calm     92% 0.00in /  0mm
05:39 65.4 °F /  18.6 °C 63.0 °F /  17.2 °C 29.92in /  1013.1hPa Calm     92% 0.00in /  0mm
05:44 65.4 °F /  18.6 °C 63.0 °F /  17.2 °C 29.92in /  1013.1hPa Calm     92% 0.00in /  0mm
05:49 65.6 °F /  18.7 °C 63.2 °F /  17.3 °C 29.92in /  1013.1hPa Calm     92% 0.00in /  0mm
05:54 65.6 °F /  18.7 °C 63.2 °F /  17.3 °C 29.92in /  1013.1hPa Calm     92% 0.00in /  0mm
05:59 65.8 °F /  18.8 °C 63.4 °F /  17.4 °C 29.92in /  1013.1hPa Calm     92% 0.00in /  0mm
06:04 65.8 °F /  18.8 °C 63.4 °F /  17.4 °C 29.92in /  1013.1hPa Calm     92% 0.00in /  0mm
06:09 65.8 °F /  18.8 °C 63.4 °F /  17.4 °C 29.92in /  1013.1hPa Calm     92% 0.00in /  0mm
06:14 65.8 °F /  18.8 °C 63.7 °F /  17.6 °C 29.92in /  1013.1hPa Calm     93% 0.00in /  0mm
06:19 65.8 °F /  18.8 °C 63.7 °F /  17.6 °C 29.92in /  1013.1hPa Calm     93% 0.00in /  0mm
06:24 65.8 °F /  18.8 °C 63.7 °F /  17.6 °C 29.92in /  1013.1hPa Calm     93% 0.00in /  0mm
06:29 66.0 °F /  18.9 °C 63.9 °F /  17.7 °C 29.92in /  1013.1hPa Calm     93% 0.00in /  0mm
06:34 65.9 °F /  18.8 °C 63.5 °F /  17.5 °C 29.92in /  1013.1hPa Calm     92% 0.00in /  0mm
06:39 65.9 °F /  18.8 °C 63.8 °F /  17.7 °C 29.92in /  1013.1hPa Calm     93% 0.00in /  0mm
06:44 66.1 °F /  18.9 °C 64.0 °F /  17.8 °C 29.92in /  1013.1hPa Calm     93% 0.00in /  0mm
06:49 66.2 °F /  19 °C 64.1 °F /  17.8 °C 29.93in /  1013.4hPa Calm     93% 0.00in /  0mm
06:54 66.4 °F /  19.1 °C 64.3 °F /  17.9 °C 29.93in /  1013.4hPa Calm     93% 0.00in /  0mm
06:59 66.8 °F /  19.3 °C 64.7 °F /  18.2 °C 29.93in /  1013.4hPa Calm     93% 0.00in /  0mm
07:04 67.1 °F /  19.5 °C 65.0 °F /  18.3 °C 29.93in /  1013.4hPa Calm   3.0mph /  4.8km/h 93% 0.00in /  0mm
07:09 67.3 °F /  19.6 °C 64.9 °F /  18.3 °C 29.93in /  1013.4hPa SSE 1.0mph /  1.6km/h 3.0mph /  4.8km/h 92% 0.00in /  0mm
07:14 67.4 °F /  19.7 °C 65.0 °F /  18.3 °C 29.93in /  1013.4hPa Calm   4.0mph /  6.4km/h 92% 0.00in /  0mm
07:19 67.7 °F /  19.8 °C 65.3 °F /  18.5 °C 29.94in /  1013.8hPa Calm   3.0mph /  4.8km/h 92% 0.00in /  0mm
07:24 68.1 °F /  20.1 °C 65.7 °F /  18.7 °C 29.94in /  1013.8hPa Calm   3.0mph /  4.8km/h 92% 0.00in /  0mm
07:29 68.6 °F /  20.3 °C 65.9 °F /  18.8 °C 29.94in /  1013.8hPa Calm     91% 0.00in /  0mm
07:34 69.0 °F /  20.6 °C 66.3 °F /  19.1 °C 29.94in /  1013.8hPa SSW 1.0mph /  1.6km/h 4.0mph /  6.4km/h 91% 0.00in /  0mm
07:39 69.5 °F /  20.8 °C 66.4 °F /  19.1 °C 29.94in /  1013.8hPa SSW 4.0mph /  6.4km/h 5.0mph /  8km/h 90% 0.00in /  0mm
07:44 69.9 °F /  21.1 °C 66.8 °F /  19.3 °C 29.95in /  1014.1hPa SW 1.0mph /  1.6km/h 5.0mph /  8km/h 90% 0.00in /  0mm
07:49 70.0 °F /  21.1 °C 66.9 °F /  19.4 °C 29.95in /  1014.1hPa SSW 1.0mph /  1.6km/h 6.0mph /  9.7km/h 90% 0.00in /  0mm
07:54 70.0 °F /  21.1 °C 66.6 °F /  19.2 °C 29.95in /  1014.1hPa SSW 1.0mph /  1.6km/h 5.0mph /  8km/h 89% 0.00in /  0mm
07:59 70.1 °F /  21.2 °C 66.7 °F /  19.3 °C 29.95in /  1014.1hPa SSW 1.0mph /  1.6km/h 5.0mph /  8km/h 89% 0.00in /  0mm
08:04 70.3 °F /  21.3 °C 66.9 °F /  19.4 °C 29.95in /  1014.1hPa SW 1.0mph /  1.6km/h 3.0mph /  4.8km/h 89% 0.00in /  0mm
08:09 70.8 °F /  21.6 °C 67.4 °F /  19.7 °C 29.95in /  1014.1hPa SW 2.0mph /  3.2km/h 5.0mph /  8km/h 89% 0.00in /  0mm
08:14 71.3 °F /  21.8 °C 67.9 °F /  19.9 °C 29.95in /  1014.1hPa Calm   4.0mph /  6.4km/h 89% 0.00in /  0mm
08:19 71.7 °F /  22.1 °C 67.6 °F /  19.8 °C 29.95in /  1014.1hPa WSW 3.0mph /  4.8km/h 8.0mph /  12.9km/h 87% 0.00in /  0mm
08:24 71.4 °F /  21.9 °C 66.7 °F /  19.3 °C 29.95in /  1014.1hPa West 6.0mph /  9.7km/h 12.0mph /  19.3km/h 85% 0.00in /  0mm
08:29 71.9 °F /  22.2 °C 66.5 °F /  19.2 °C 29.96in /  1014.4hPa WSW 5.0mph /  8km/h 12.0mph /  19.3km/h 83% 0.00in /  0mm
08:34 72.4 °F /  22.4 °C 66.6 °F /  19.2 °C 29.96in /  1014.4hPa WSW 4.0mph /  6.4km/h 9.0mph /  14.5km/h 82% 0.00in /  0mm
08:39 72.7 °F /  22.6 °C 66.5 °F /  19.2 °C 29.96in /  1014.4hPa WNW 4.0mph /  6.4km/h 12.0mph /  19.3km/h 81% 0.00in /  0mm
08:44 72.8 °F /  22.7 °C 66.6 °F /  19.2 °C 29.96in /  1014.4hPa WNW 2.0mph /  3.2km/h 8.0mph /  12.9km/h 81% 0.00in /  0mm
08:49 72.4 °F /  22.4 °C 66.2 °F /  19 °C 29.96in /  1014.4hPa SW 3.0mph /  4.8km/h 8.0mph /  12.9km/h 81% 0.00in /  0mm
08:54 73.1 °F /  22.8 °C 66.6 °F /  19.2 °C 29.96in /  1014.4hPa West 3.0mph /  4.8km/h 7.0mph /  11.3km/h 80% 0.00in /  0mm
08:59 73.0 °F /  22.8 °C 66.8 °F /  19.3 °C 29.96in /  1014.4hPa WSW 4.0mph /  6.4km/h 8.0mph /  12.9km/h 81% 0.00in /  0mm
09:04 72.6 °F /  22.6 °C 65.3 °F /  18.5 °C 29.96in /  1014.4hPa WSW 5.0mph /  8km/h 13.0mph /  20.9km/h 78% 0.00in /  0mm
09:09 72.6 °F /  22.6 °C 65.7 °F /  18.7 °C 29.97in /  1014.8hPa SW 5.0mph /  8km/h 10.0mph /  16.1km/h 79% 0.00in /  0mm
09:14 73.2 °F /  22.9 °C 66.3 °F /  19.1 °C 29.97in /  1014.8hPa WSW 3.0mph /  4.8km/h 10.0mph /  16.1km/h 79% 0.00in /  0mm
09:19 73.3 °F /  22.9 °C 65.7 °F /  18.7 °C 29.97in /  1014.8hPa SW 5.0mph /  8km/h 10.0mph /  16.1km/h 77% 0.00in /  0mm
09:24 73.8 °F /  23.2 °C 66.1 °F /  18.9 °C 29.97in /  1014.8hPa WSW 8.0mph /  12.9km/h 10.0mph /  16.1km/h 77% 0.00in /  0mm
09:29 74.2 °F /  23.4 °C 65.8 °F /  18.8 °C 29.97in /  1014.8hPa WSW 5.0mph /  8km/h 12.0mph /  19.3km/h 75% 0.00in /  0mm
09:34 74.8 °F /  23.8 °C 66.3 °F /  19.1 °C 29.97in /  1014.8hPa WSW 5.0mph /  8km/h 12.0mph /  19.3km/h 75% 0.00in /  0mm
09:39 74.3 °F /  23.5 °C 65.1 °F /  18.4 °C 29.97in /  1014.8hPa WSW 5.0mph /  8km/h 12.0mph /  19.3km/h 73% 0.00in /  0mm
09:44 73.5 °F /  23.1 °C 64.7 °F /  18.2 °C 29.97in /  1014.8hPa WSW 6.0mph /  9.7km/h 12.0mph /  19.3km/h 74% 0.00in /  0mm
09:49 73.1 °F /  22.8 °C 64.3 °F /  17.9 °C 29.97in /  1014.8hPa SW 5.0mph /  8km/h 11.0mph /  17.7km/h 74% 0.00in /  0mm
09:54 74.0 °F /  23.3 °C 65.6 °F /  18.7 °C 29.97in /  1014.8hPa SSE 9.0mph /  14.5km/h 10.0mph /  16.1km/h 75% 0.00in /  0mm
09:59 73.5 °F /  23.1 °C 65.5 °F /  18.6 °C 29.97in /  1014.8hPa WSW 7.0mph /  11.3km/h 10.0mph /  16.1km/h 76% 0.00in /  0mm
10:04 73.7 °F /  23.2 °C 65.3 °F /  18.5 °C 29.97in /  1014.8hPa West 3.0mph /  4.8km/h 11.0mph /  17.7km/h 75% 0.00in /  0mm
10:09 74.4 °F /  23.6 °C 65.2 °F /  18.4 °C 29.97in /  1014.8hPa West 6.0mph /  9.7km/h 11.0mph /  17.7km/h 73% 0.00in /  0mm
10:14 74.7 °F /  23.7 °C 65.5 °F /  18.6 °C 29.97in /  1014.8hPa SW 9.0mph /  14.5km/h 11.0mph /  17.7km/h 73% 0.00in /  0mm
10:19 74.6 °F /  23.7 °C 65.4 °F /  18.6 °C 29.97in /  1014.8hPa SW 3.0mph /  4.8km/h 10.0mph /  16.1km/h 73% 0.00in /  0mm
10:24 75.4 °F /  24.1 °C 65.7 °F /  18.7 °C 29.98in /  1015.1hPa SW 7.0mph /  11.3km/h 9.0mph /  14.5km/h 72% 0.00in /  0mm
10:29 75.1 °F /  23.9 °C 65.5 °F /  18.6 °C 29.98in /  1015.1hPa SW 5.0mph /  8km/h 11.0mph /  17.7km/h 72% 0.00in /  0mm
10:34 75.4 °F /  24.1 °C 66.5 °F /  19.2 °C 29.98in /  1015.1hPa SW 6.0mph /  9.7km/h 11.0mph /  17.7km/h 74% 0.00in /  0mm
10:39 75.0 °F /  23.9 °C 65.4 °F /  18.6 °C 29.98in /  1015.1hPa WSW 6.0mph /  9.7km/h 13.0mph /  20.9km/h 72% 0.00in /  0mm
10:44 74.9 °F /  23.8 °C 65.7 °F /  18.7 °C 29.99in /  1015.5hPa WSW 6.0mph /  9.7km/h 13.0mph /  20.9km/h 73% 0.00in /  0mm
10:49 74.9 °F /  23.8 °C 65.7 °F /  18.7 °C 29.98in /  1015.1hPa West 4.0mph /  6.4km/h 10.0mph /  16.1km/h 73% 0.00in /  0mm
10:54 75.3 °F /  24.1 °C 65.6 °F /  18.7 °C 29.99in /  1015.5hPa WSW 7.0mph /  11.3km/h 12.0mph /  19.3km/h 72% 0.00in /  0mm
10:59 75.5 °F /  24.2 °C 65.4 °F /  18.6 °C 29.98in /  1015.1hPa SW 6.0mph /  9.7km/h 12.0mph /  19.3km/h 71% 0.00in /  0mm
11:04 75.5 °F /  24.2 °C 65.8 °F /  18.8 °C 29.99in /  1015.5hPa SW 6.0mph /  9.7km/h 12.0mph /  19.3km/h 72% 0.00in /  0mm
11:09 75.8 °F /  24.3 °C 65.7 °F /  18.7 °C 29.99in /  1015.5hPa WSW 5.0mph /  8km/h 12.0mph /  19.3km/h 71% 0.00in /  0mm
11:14 75.6 °F /  24.2 °C 65.5 °F /  18.6 °C 29.98in /  1015.1hPa WSW 4.0mph /  6.4km/h 11.0mph /  17.7km/h 71% 0.00in /  0mm
11:19 75.8 °F /  24.3 °C 64.9 °F /  18.3 °C 29.98in /  1015.1hPa SW 4.0mph /  6.4km/h 11.0mph /  17.7km/h 69% 0.00in /  0mm
11:24 76.4 °F /  24.7 °C 65.1 °F /  18.4 °C 29.98in /  1015.1hPa SW 6.0mph /  9.7km/h 12.0mph /  19.3km/h 68% 0.00in /  0mm
11:29 76.2 °F /  24.6 °C 65.3 °F /  18.5 °C 29.98in /  1015.1hPa SW 6.0mph /  9.7km/h 12.0mph /  19.3km/h 69% 0.00in /  0mm
11:34 76.4 °F /  24.7 °C 65.1 °F /  18.4 °C 29.98in /  1015.1hPa SW 6.0mph /  9.7km/h 10.0mph /  16.1km/h 68% 0.00in /  0mm
11:39 76.4 °F /  24.7 °C 65.5 °F /  18.6 °C 29.99in /  1015.5hPa WSW 7.0mph /  11.3km/h 11.0mph /  17.7km/h 69% 0.00in /  0mm
11:44 76.3 °F /  24.6 °C 65.4 °F /  18.6 °C 29.98in /  1015.1hPa SW 5.0mph /  8km/h 12.0mph /  19.3km/h 69% 0.00in /  0mm
11:49 76.5 °F /  24.7 °C 66.0 °F /  18.9 °C 29.99in /  1015.5hPa SSW 5.0mph /  8km/h 11.0mph /  17.7km/h 70% 0.00in /  0mm
11:54 76.4 °F /  24.7 °C 65.5 °F /  18.6 °C 29.99in /  1015.5hPa SW 4.0mph /  6.4km/h 12.0mph /  19.3km/h 69% 0.00in /  0mm
11:59 76.5 °F /  24.7 °C 65.6 °F /  18.7 °C 29.99in /  1015.5hPa SW 6.0mph /  9.7km/h 12.0mph /  19.3km/h 69% 0.00in /  0mm
12:04 76.3 °F /  24.6 °C 64.1 °F /  17.8 °C 29.98in /  1015.1hPa SW 7.0mph /  11.3km/h 14.0mph /  22.5km/h 66% 0.00in /  0mm
12:09 76.4 °F /  24.7 °C 64.6 °F /  18.1 °C 29.98in /  1015.1hPa SW 6.0mph /  9.7km/h 14.0mph /  22.5km/h 67% 0.00in /  0mm
12:14 76.7 °F /  24.8 °C 65.3 °F /  18.5 °C 29.98in /  1015.1hPa SW 6.0mph /  9.7km/h 13.0mph /  20.9km/h 68% 0.00in /  0mm
12:19 76.8 °F /  24.9 °C 64.6 °F /  18.1 °C 29.98in /  1015.1hPa SW 6.0mph /  9.7km/h 13.0mph /  20.9km/h 66% 0.00in /  0mm
12:24 76.3 °F /  24.6 °C 64.1 °F /  17.8 °C 29.98in /  1015.1hPa West 5.0mph /  8km/h 10.0mph /  16.1km/h 66% 0.00in /  0mm
12:29 76.4 °F /  24.7 °C 65.5 °F /  18.6 °C 29.98in /  1015.1hPa WSW 5.0mph /  8km/h 11.0mph /  17.7km/h 69% 0.00in /  0mm
12:34 76.9 °F /  24.9 °C 65.1 °F /  18.4 °C 29.98in /  1015.1hPa SW 10.0mph /  16.1km/h 14.0mph /  22.5km/h 67% 0.00in /  0mm
12:39 76.7 °F /  24.8 °C 65.3 °F /  18.5 °C 29.98in /  1015.1hPa SSW 6.0mph /  9.7km/h 12.0mph /  19.3km/h 68% 0.00in /  0mm
12:44 76.6 °F /  24.8 °C 65.7 °F /  18.7 °C 29.98in /  1015.1hPa SW 4.0mph /  6.4km/h 13.0mph /  20.9km/h 69% 0.00in /  0mm
12:49 76.4 °F /  24.7 °C 65.1 °F /  18.4 °C 29.98in /  1015.1hPa WSW 6.0mph /  9.7km/h 13.0mph /  20.9km/h 68% 0.00in /  0mm
12:54 76.9 °F /  24.9 °C 66.0 °F /  18.9 °C 29.98in /  1015.1hPa SW 6.0mph /  9.7km/h 13.0mph /  20.9km/h 69% 0.00in /  0mm
12:59 77.0 °F /  25 °C 65.6 °F /  18.7 °C 29.98in /  1015.1hPa SW 6.0mph /  9.7km/h 13.0mph /  20.9km/h 68% 0.00in /  0mm
13:04 76.4 °F /  24.7 °C 65.1 °F /  18.4 °C 29.98in /  1015.1hPa WSW 6.0mph /  9.7km/h 13.0mph /  20.9km/h 68% 0.00in /  0mm
13:09 76.0 °F /  24.4 °C 65.5 °F /  18.6 °C 29.98in /  1015.1hPa WSW 6.0mph /  9.7km/h 13.0mph /  20.9km/h 70% 0.00in /  0mm
13:14 76.7 °F /  24.8 °C 64.5 °F /  18.1 °C 29.98in /  1015.1hPa WSW 7.0mph /  11.3km/h 13.0mph /  20.9km/h 66% 0.00in /  0mm
13:19 77.0 °F /  25 °C 65.6 °F /  18.7 °C 29.99in /  1015.5hPa SW 6.0mph /  9.7km/h 13.0mph /  20.9km/h 68% 0.00in /  0mm
13:24 76.1 °F /  24.5 °C 64.8 °F /  18.2 °C 29.98in /  1015.1hPa West 15.0mph /  24.1km/h 15.0mph /  24.1km/h 68% 0.00in /  0mm
13:29 76.8 °F /  24.9 °C 64.6 °F /  18.1 °C 29.99in /  1015.5hPa WSW 7.0mph /  11.3km/h 15.0mph /  24.1km/h 66% 0.00in /  0mm
13:34 76.7 °F /  24.8 °C 64.9 °F /  18.3 °C 29.99in /  1015.5hPa WSW 6.0mph /  9.7km/h 15.0mph /  24.1km/h 67% 0.00in /  0mm
13:39 77.1 °F /  25.1 °C 64.4 °F /  18 °C 29.98in /  1015.1hPa WSW 6.0mph /  9.7km/h 12.0mph /  19.3km/h 65% 0.00in /  0mm
13:44 77.5 °F /  25.3 °C 64.8 °F /  18.2 °C 29.99in /  1015.5hPa SSW 8.0mph /  12.9km/h 12.0mph /  19.3km/h 65% 0.00in /  0mm
13:49 76.4 °F /  24.7 °C 63.3 °F /  17.4 °C 29.99in /  1015.5hPa SW 6.0mph /  9.7km/h 16.0mph /  25.7km/h 64% 0.00in /  0mm
13:54 76.5 °F /  24.7 °C 64.7 °F /  18.2 °C 29.99in /  1015.5hPa WSW 7.0mph /  11.3km/h 16.0mph /  25.7km/h 67% 0.00in /  0mm
13:59 76.5 °F /  24.7 °C 65.1 °F /  18.4 °C 29.99in /  1015.5hPa WSW 7.0mph /  11.3km/h 15.0mph /  24.1km/h 68% 0.00in /  0mm
14:04 76.4 °F /  24.7 °C 65.9 °F /  18.8 °C 29.99in /  1015.5hPa WSW 8.0mph /  12.9km/h 12.0mph /  19.3km/h 70% 0.00in /  0mm
14:09 76.7 °F /  24.8 °C 65.3 °F /  18.5 °C 29.99in /  1015.5hPa WSW 7.0mph /  11.3km/h 13.0mph /  20.9km/h 68% 0.00in /  0mm
14:14 76.5 °F /  24.7 °C 64.7 °F /  18.2 °C 29.98in /  1015.1hPa West 4.0mph /  6.4km/h 13.0mph /  20.9km/h 67% 0.00in /  0mm
14:19 76.7 °F /  24.8 °C 64.5 °F /  18.1 °C 29.98in /  1015.1hPa SW 12.0mph /  19.3km/h 12.0mph /  19.3km/h 66% 0.00in /  0mm
14:24 77.1 °F /  25.1 °C 65.3 °F /  18.5 °C 29.99in /  1015.5hPa WSW 6.0mph /  9.7km/h 15.0mph /  24.1km/h 67% 0.00in /  0mm
14:29 77.5 °F /  25.3 °C 66.1 °F /  18.9 °C 29.99in /  1015.5hPa West 6.0mph /  9.7km/h 15.0mph /  24.1km/h 68% 0.00in /  0mm
14:34 76.7 °F /  24.8 °C 63.6 °F /  17.6 °C 29.99in /  1015.5hPa WSW 7.0mph /  11.3km/h 13.0mph /  20.9km/h 64% 0.00in /  0mm
14:39 76.2 °F /  24.6 °C 63.1 °F /  17.3 °C 29.99in /  1015.5hPa WSW 8.0mph /  12.9km/h 16.0mph /  25.7km/h 64% 0.00in /  0mm
14:44 76.8 °F /  24.9 °C 63.2 °F /  17.3 °C 29.99in /  1015.5hPa WSW 8.0mph /  12.9km/h 16.0mph /  25.7km/h 63% 0.00in /  0mm
14:49 76.6 °F /  24.8 °C 63.5 °F /  17.5 °C 29.99in /  1015.5hPa WSW 8.0mph /  12.9km/h 16.0mph /  25.7km/h 64% 0.00in /  0mm
14:54 77.1 °F /  25.1 °C 63.1 °F /  17.3 °C 29.99in /  1015.5hPa SW 6.0mph /  9.7km/h 14.0mph /  22.5km/h 62% 0.00in /  0mm
14:59 76.6 °F /  24.8 °C 63.1 °F /  17.3 °C 29.99in /  1015.5hPa WSW 10.0mph /  16.1km/h 16.0mph /  25.7km/h 63% 0.00in /  0mm
15:04 76.1 °F /  24.5 °C 63.0 °F /  17.2 °C 29.99in /  1015.5hPa West 5.0mph /  8km/h 14.0mph /  22.5km/h 64% 0.00in /  0mm
15:09 77.1 °F /  25.1 °C 63.1 °F /  17.3 °C 29.99in /  1015.5hPa WSW 8.0mph /  12.9km/h 18.0mph /  29km/h 62% 0.00in /  0mm
15:14 77.2 °F /  25.1 °C 63.2 °F /  17.3 °C 29.99in /  1015.5hPa WSW 5.0mph /  8km/h 16.0mph /  25.7km/h 62% 0.00in /  0mm
15:19 76.8 °F /  24.9 °C 62.8 °F /  17.1 °C 29.99in /  1015.5hPa SSW 6.0mph /  9.7km/h 13.0mph /  20.9km/h 62% 0.00in /  0mm
15:24 76.6 °F /  24.8 °C 62.1 °F /  16.7 °C 29.99in /  1015.5hPa WSW 9.0mph /  14.5km/h 13.0mph /  20.9km/h 61% 0.00in /  0mm
15:29 76.8 °F /  24.9 °C 62.8 °F /  17.1 °C 29.98in /  1015.1hPa SW 7.0mph /  11.3km/h 14.0mph /  22.5km/h 62% 0.00in /  0mm
15:34 77.0 °F /  25 °C 64.3 °F /  17.9 °C 29.99in /  1015.5hPa SW 7.0mph /  11.3km/h 14.0mph /  22.5km/h 65% 0.00in /  0mm
15:39 77.0 °F /  25 °C 63.9 °F /  17.7 °C 29.98in /  1015.1hPa SW 7.0mph /  11.3km/h 14.0mph /  22.5km/h 64% 0.00in /  0mm
15:44 76.3 °F /  24.6 °C 63.2 °F /  17.3 °C 29.98in /  1015.1hPa WSW 8.0mph /  12.9km/h 14.0mph /  22.5km/h 64% 0.00in /  0mm
15:49 76.7 °F /  24.8 °C 63.6 °F /  17.6 °C 29.99in /  1015.5hPa SW 7.0mph /  11.3km/h 12.0mph /  19.3km/h 64% 0.00in /  0mm
15:54 77.4 °F /  25.2 °C 62.9 °F /  17.2 °C 29.99in /  1015.5hPa WSW 6.0mph /  9.7km/h 12.0mph /  19.3km/h 61% 0.00in /  0mm
15:59 76.8 °F /  24.9 °C 62.3 °F /  16.8 °C 29.99in /  1015.5hPa WSW 6.0mph /  9.7km/h 13.0mph /  20.9km/h 61% 0.00in /  0mm
16:04 76.5 °F /  24.7 °C 62.0 °F /  16.7 °C 29.99in /  1015.5hPa West 4.0mph /  6.4km/h 13.0mph /  20.9km/h 61% 0.00in /  0mm
16:09 76.6 °F /  24.8 °C 61.7 °F /  16.5 °C 29.98in /  1015.1hPa West 5.0mph /  8km/h 13.0mph /  20.9km/h 60% 0.00in /  0mm
16:14 76.7 °F /  24.8 °C 62.2 °F /  16.8 °C 29.99in /  1015.5hPa WSW 11.0mph /  17.7km/h 12.0mph /  19.3km/h 61% 0.00in /  0mm
16:19 76.4 °F /  24.7 °C 62.9 °F /  17.2 °C 29.99in /  1015.5hPa WSW 5.0mph /  8km/h 17.0mph /  27.4km/h 63% 0.00in /  0mm
16:24 76.1 °F /  24.5 °C 62.1 °F /  16.7 °C 29.98in /  1015.1hPa WSW 7.0mph /  11.3km/h 17.0mph /  27.4km/h 62% 0.00in /  0mm
16:29 76.6 °F /  24.8 °C 62.6 °F /  17 °C 29.99in /  1015.5hPa West 7.0mph /  11.3km/h 15.0mph /  24.1km/h 62% 0.00in /  0mm
16:34 76.5 °F /  24.7 °C 63.0 °F /  17.2 °C 29.99in /  1015.5hPa WSW 6.0mph /  9.7km/h 15.0mph /  24.1km/h 63% 0.00in /  0mm
16:39 76.2 °F /  24.6 °C 62.7 °F /  17.1 °C 29.99in /  1015.5hPa South 5.0mph /  8km/h 16.0mph /  25.7km/h 63% 0.00in /  0mm
16:44 76.3 °F /  24.6 °C 64.1 °F /  17.8 °C 29.99in /  1015.5hPa SW 7.0mph /  11.3km/h 12.0mph /  19.3km/h 66% 0.00in /  0mm
16:49 76.6 °F /  24.8 °C 64.0 °F /  17.8 °C 29.99in /  1015.5hPa West 4.0mph /  6.4km/h 10.0mph /  16.1km/h 65% 0.00in /  0mm
16:54 76.5 °F /  24.7 °C 63.9 °F /  17.7 °C 29.99in /  1015.5hPa WSW 5.0mph /  8km/h 10.0mph /  16.1km/h 65% 0.00in /  0mm
16:59 77.2 °F /  25.1 °C 64.1 °F /  17.8 °C 29.99in /  1015.5hPa WSW 4.0mph /  6.4km/h 10.0mph /  16.1km/h 64% 0.00in /  0mm
17:04 76.8 °F /  24.9 °C 63.7 °F /  17.6 °C 29.99in /  1015.5hPa WSW 4.0mph /  6.4km/h 9.0mph /  14.5km/h 64% 0.00in /  0mm
17:09 76.4 °F /  24.7 °C 63.8 °F /  17.7 °C 29.99in /  1015.5hPa SW 5.0mph /  8km/h 13.0mph /  20.9km/h 65% 0.00in /  0mm
17:14 76.0 °F /  24.4 °C 62.9 °F /  17.2 °C 29.98in /  1015.1hPa SSW 6.0mph /  9.7km/h 12.0mph /  19.3km/h 64% 0.00in /  0mm
17:19 76.2 °F /  24.6 °C 63.6 °F /  17.6 °C 29.98in /  1015.1hPa WNW 8.0mph /  12.9km/h 10.0mph /  16.1km/h 65% 0.00in /  0mm
17:24 75.9 °F /  24.4 °C 63.3 °F /  17.4 °C 29.99in /  1015.5hPa West 6.0mph /  9.7km/h 12.0mph /  19.3km/h 65% 0.00in /  0mm
17:29 75.8 °F /  24.3 °C 63.2 °F /  17.3 °C 29.99in /  1015.5hPa WSW 6.0mph /  9.7km/h 12.0mph /  19.3km/h 65% 0.00in /  0mm
17:34 76.0 °F /  24.4 °C 63.8 °F /  17.7 °C 29.99in /  1015.5hPa WSW 6.0mph /  9.7km/h 11.0mph /  17.7km/h 66% 0.00in /  0mm
17:39 75.4 °F /  24.1 °C 63.2 °F /  17.3 °C 29.98in /  1015.1hPa SW 4.0mph /  6.4km/h 11.0mph /  17.7km/h 66% 0.00in /  0mm
17:44 75.2 °F /  24 °C 63.9 °F /  17.7 °C 29.98in /  1015.1hPa SW 4.0mph /  6.4km/h 11.0mph /  17.7km/h 68% 0.00in /  0mm
17:49 75.3 °F /  24.1 °C 64.4 °F /  18 °C 29.98in /  1015.1hPa WSW 5.0mph /  8km/h 9.0mph /  14.5km/h 69% 0.00in /  0mm
17:54 75.3 °F /  24.1 °C 64.4 °F /  18 °C 29.98in /  1015.1hPa WSW 6.0mph /  9.7km/h 12.0mph /  19.3km/h 69% 0.00in /  0mm
17:59 75.0 °F /  23.9 °C 63.3 °F /  17.4 °C 29.98in /  1015.1hPa WSW 6.0mph /  9.7km/h 13.0mph /  20.9km/h 67% 0.00in /  0mm
18:04 75.1 °F /  23.9 °C 63.8 °F /  17.7 °C 29.98in /  1015.1hPa WSW 6.0mph /  9.7km/h 13.0mph /  20.9km/h 68% 0.00in /  0mm
18:09 75.0 °F /  23.9 °C 63.7 °F /  17.6 °C 29.98in /  1015.1hPa WSW 5.0mph /  8km/h 11.0mph /  17.7km/h 68% 0.00in /  0mm
18:14 75.0 °F /  23.9 °C 63.7 °F /  17.6 °C 29.98in /  1015.1hPa WSW 5.0mph /  8km/h 11.0mph /  17.7km/h 68% 0.00in /  0mm
18:19 74.6 °F /  23.7 °C 63.8 °F /  17.7 °C 29.99in /  1015.5hPa West 7.0mph /  11.3km/h 12.0mph /  19.3km/h 69% 0.00in /  0mm
18:24 74.3 °F /  23.5 °C 63.9 °F /  17.7 °C 29.99in /  1015.5hPa WSW 4.0mph /  6.4km/h 7.0mph /  11.3km/h 70% 0.00in /  0mm
18:29 74.5 °F /  23.6 °C 64.1 °F /  17.8 °C 29.99in /  1015.5hPa SW 5.0mph /  8km/h 9.0mph /  14.5km/h 70% 0.00in /  0mm
18:34 74.8 °F /  23.8 °C 64.8 °F /  18.2 °C 29.99in /  1015.5hPa SW 3.0mph /  4.8km/h 8.0mph /  12.9km/h 71% 0.00in /  0mm
18:39 74.6 °F /  23.7 °C 64.2 °F /  17.9 °C 29.99in /  1015.5hPa West 6.0mph /  9.7km/h 10.0mph /  16.1km/h 70% 0.00in /  0mm
18:44 74.8 °F /  23.8 °C 64.8 °F /  18.2 °C 29.99in /  1015.5hPa SW 2.0mph /  3.2km/h 7.0mph /  11.3km/h 71% 0.00in /  0mm
18:49 74.6 °F /  23.7 °C 64.6 °F /  18.1 °C 29.99in /  1015.5hPa SW 2.0mph /  3.2km/h 9.0mph /  14.5km/h 71% 0.00in /  0mm
18:54 74.0 °F /  23.3 °C 64.0 °F /  17.8 °C 29.99in /  1015.5hPa SW 5.0mph /  8km/h 11.0mph /  17.7km/h 71% 0.00in /  0mm
18:59 73.5 °F /  23.1 °C 63.9 °F /  17.7 °C 29.99in /  1015.5hPa WSW 5.0mph /  8km/h 11.0mph /  17.7km/h 72% 0.00in /  0mm
19:04 73.5 °F /  23.1 °C 64.3 °F /  17.9 °C 30.00in /  1015.8hPa SW 5.0mph /  8km/h 9.0mph /  14.5km/h 73% 0.00in /  0mm
19:09 73.4 °F /  23 °C 64.2 °F /  17.9 °C 30.00in /  1015.8hPa SW 5.0mph /  8km/h 9.0mph /  14.5km/h 73% 0.00in /  0mm
19:14 73.1 °F /  22.8 °C 63.9 °F /  17.7 °C 30.00in /  1015.8hPa WSW 5.0mph /  8km/h 9.0mph /  14.5km/h 73% 0.00in /  0mm
19:19 73.1 °F /  22.8 °C 63.9 °F /  17.7 °C 30.00in /  1015.8hPa WSW 3.0mph /  4.8km/h 9.0mph /  14.5km/h 73% 0.00in /  0mm
19:24 73.1 °F /  22.8 °C 63.9 °F /  17.7 °C 30.00in /  1015.8hPa SW 4.0mph /  6.4km/h 11.0mph /  17.7km/h 73% 0.00in /  0mm
19:29 73.0 °F /  22.8 °C 64.2 °F /  17.9 °C 30.00in /  1015.8hPa SW 2.0mph /  3.2km/h 9.0mph /  14.5km/h 74% 0.00in /  0mm
19:34 72.8 °F /  22.7 °C 64.0 °F /  17.8 °C 30.01in /  1016.1hPa West 2.0mph /  3.2km/h 7.0mph /  11.3km/h 74% 0.00in /  0mm
19:39 72.7 °F /  22.6 °C 64.3 °F /  17.9 °C 30.01in /  1016.1hPa SW 3.0mph /  4.8km/h 8.0mph /  12.9km/h 75% 0.00in /  0mm
19:44 72.6 °F /  22.6 °C 64.2 °F /  17.9 °C 30.01in /  1016.1hPa WSW 3.0mph /  4.8km/h 8.0mph /  12.9km/h 75% 0.00in /  0mm
19:49 72.5 °F /  22.5 °C 64.1 °F /  17.8 °C 30.01in /  1016.1hPa West 4.0mph /  6.4km/h 9.0mph /  14.5km/h 75% 0.00in /  0mm
19:54 72.2 °F /  22.3 °C 63.8 °F /  17.7 °C 30.01in /  1016.1hPa WSW 4.0mph /  6.4km/h 10.0mph /  16.1km/h 75% 0.00in /  0mm
19:59 72.0 °F /  22.2 °C 63.6 °F /  17.6 °C 30.01in /  1016.1hPa WSW 5.0mph /  8km/h 10.0mph /  16.1km/h 75% 0.00in /  0mm
20:04 71.9 °F /  22.2 °C 63.9 °F /  17.7 °C 30.02in /  1016.5hPa WSW 4.0mph /  6.4km/h 9.0mph /  14.5km/h 76% 0.00in /  0mm
20:09 71.8 °F /  22.1 °C 63.8 °F /  17.7 °C 30.02in /  1016.5hPa WSW 4.0mph /  6.4km/h 9.0mph /  14.5km/h 76% 0.00in /  0mm
20:14 71.6 °F /  22 °C 63.6 °F /  17.6 °C 30.02in /  1016.5hPa WSW 4.0mph /  6.4km/h 8.0mph /  12.9km/h 76% 0.00in /  0mm
20:19 71.4 °F /  21.9 °C 63.8 °F /  17.7 °C 30.02in /  1016.5hPa West 2.0mph /  3.2km/h 6.0mph /  9.7km/h 77% 0.00in /  0mm
20:24 71.4 °F /  21.9 °C 63.8 °F /  17.7 °C 30.03in /  1016.8hPa WSW 3.0mph /  4.8km/h 9.0mph /  14.5km/h 77% 0.00in /  0mm
20:29 71.3 °F /  21.8 °C 63.7 °F /  17.6 °C 30.02in /  1016.5hPa WSW 4.0mph /  6.4km/h 9.0mph /  14.5km/h 77% 0.00in /  0mm
20:34 71.2 °F /  21.8 °C 64.0 °F /  17.8 °C 30.02in /  1016.5hPa WSW 3.0mph /  4.8km/h 7.0mph /  11.3km/h 78% 0.00in /  0mm
20:39 71.0 °F /  21.7 °C 64.2 °F /  17.9 °C 30.02in /  1016.5hPa SW 2.0mph /  3.2km/h 6.0mph /  9.7km/h 79% 0.00in /  0mm
20:44 70.9 °F /  21.6 °C 64.1 °F /  17.8 °C 30.03in /  1016.8hPa SW 3.0mph /  4.8km/h 6.0mph /  9.7km/h 79% 0.00in /  0mm
20:49 70.7 °F /  21.5 °C 64.2 °F /  17.9 °C 30.03in /  1016.8hPa SW 4.0mph /  6.4km/h 7.0mph /  11.3km/h 80% 0.00in /  0mm
20:54 70.6 °F /  21.4 °C 64.1 °F /  17.8 °C 30.03in /  1016.8hPa SW 3.0mph /  4.8km/h 7.0mph /  11.3km/h 80% 0.00in /  0mm
20:59 70.5 °F /  21.4 °C 64.4 °F /  18 °C 30.03in /  1016.8hPa SW 3.0mph /  4.8km/h 10.0mph /  16.1km/h 81% 0.00in /  0mm
21:04 70.4 °F /  21.3 °C 64.3 °F /  17.9 °C 30.03in /  1016.8hPa SSW 4.0mph /  6.4km/h 9.0mph /  14.5km/h 81% 0.00in /  0mm
21:09 70.3 °F /  21.3 °C 64.2 °F /  17.9 °C 30.03in /  1016.8hPa SW 3.0mph /  4.8km/h 5.0mph /  8km/h 81% 0.00in /  0mm
21:14 70.3 °F /  21.3 °C 64.2 °F /  17.9 °C 30.02in /  1016.5hPa SW 3.0mph /  4.8km/h 5.0mph /  8km/h 81% 0.00in /  0mm
21:19 70.2 °F /  21.2 °C 64.1 °F /  17.8 °C 30.02in /  1016.5hPa SW 4.0mph /  6.4km/h 6.0mph /  9.7km/h 81% 0.00in /  0mm
21:24 70.1 °F /  21.2 °C 64.0 °F /  17.8 °C 30.02in /  1016.5hPa SSW 3.0mph /  4.8km/h 6.0mph /  9.7km/h 81% 0.00in /  0mm
21:29 70.1 °F /  21.2 °C 64.0 °F /  17.8 °C 30.02in /  1016.5hPa SW 3.0mph /  4.8km/h 7.0mph /  11.3km/h 81% 0.00in /  0mm
21:34 70.0 °F /  21.1 °C 63.9 °F /  17.7 °C 30.02in /  1016.5hPa SW 2.0mph /  3.2km/h 7.0mph /  11.3km/h 81% 0.00in /  0mm
21:39 69.9 °F /  21.1 °C 63.8 °F /  17.7 °C 30.01in /  1016.1hPa SW 2.0mph /  3.2km/h 7.0mph /  11.3km/h 81% 0.00in /  0mm
21:44 69.9 °F /  21.1 °C 64.2 °F /  17.9 °C 30.02in /  1016.5hPa SW 2.0mph /  3.2km/h 5.0mph /  8km/h 82% 0.00in /  0mm
21:49 69.8 °F /  21 °C 64.1 °F /  17.8 °C 30.02in /  1016.5hPa SW 2.0mph /  3.2km/h 5.0mph /  8km/h 82% 0.00in /  0mm
21:54 69.5 °F /  20.8 °C 63.8 °F /  17.7 °C 30.02in /  1016.5hPa SW 3.0mph /  4.8km/h 3.0mph /  4.8km/h 82% 0.00in /  0mm
21:59 69.4 °F /  20.8 °C 63.7 °F /  17.6 °C 30.02in /  1016.5hPa SW 2.0mph /  3.2km/h 4.0mph /  6.4km/h 82% 0.00in /  0mm
22:04 69.4 °F /  20.8 °C 64.0 °F /  17.8 °C 30.02in /  1016.5hPa WSW 2.0mph /  3.2km/h 4.0mph /  6.4km/h 83% 0.00in /  0mm
22:09 69.4 °F /  20.8 °C 64.0 °F /  17.8 °C 30.02in /  1016.5hPa Calm   4.0mph /  6.4km/h 83% 0.00in /  0mm
22:14 69.4 °F /  20.8 °C 64.0 °F /  17.8 °C 30.02in /  1016.5hPa SW 1.0mph /  1.6km/h 3.0mph /  4.8km/h 83% 0.00in /  0mm
22:19 69.4 °F /  20.8 °C 64.0 °F /  17.8 °C 30.02in /  1016.5hPa Calm   6.0mph /  9.7km/h 83% 0.00in /  0mm
22:24 69.4 °F /  20.8 °C 64.0 °F /  17.8 °C 30.02in /  1016.5hPa Calm   4.0mph /  6.4km/h 83% 0.00in /  0mm
22:29 69.2 °F /  20.7 °C 63.8 °F /  17.7 °C 30.02in /  1016.5hPa SW 1.0mph /  1.6km/h 4.0mph /  6.4km/h 83% 0.00in /  0mm
22:34 69.1 °F /  20.6 °C 63.7 °F /  17.6 °C 30.02in /  1016.5hPa SW 1.0mph /  1.6km/h 4.0mph /  6.4km/h 83% 0.00in /  0mm
22:39 69.0 °F /  20.6 °C 63.6 °F /  17.6 °C 30.02in /  1016.5hPa SSW 1.0mph /  1.6km/h 4.0mph /  6.4km/h 83% 0.00in /  0mm
22:44 69.0 °F /  20.6 °C 64.0 °F /  17.8 °C 30.02in /  1016.5hPa SW 2.0mph /  3.2km/h 4.0mph /  6.4km/h 84% 0.00in /  0mm
22:49 69.0 °F /  20.6 °C 64.0 °F /  17.8 °C 30.02in /  1016.5hPa SW 2.0mph /  3.2km/h 3.0mph /  4.8km/h 84% 0.00in /  0mm
22:54 69.0 °F /  20.6 °C 64.0 °F /  17.8 °C 30.02in /  1016.5hPa SW 2.0mph /  3.2km/h 3.0mph /  4.8km/h 84% 0.00in /  0mm
22:59 68.9 °F /  20.5 °C 63.9 °F /  17.7 °C 30.02in /  1016.5hPa SW 2.0mph /  3.2km/h 5.0mph /  8km/h 84% 0.00in /  0mm
23:04 69.0 °F /  20.6 °C 64.0 °F /  17.8 °C 30.03in /  1016.8hPa WSW 2.0mph /  3.2km/h 6.0mph /  9.7km/h 84% 0.00in /  0mm
23:09 69.0 °F /  20.6 °C 64.0 °F /  17.8 °C 30.03in /  1016.8hPa WSW 2.0mph /  3.2km/h 6.0mph /  9.7km/h 84% 0.00in /  0mm
23:14 69.0 °F /  20.6 °C 64.0 °F /  17.8 °C 30.03in /  1016.8hPa WSW 2.0mph /  3.2km/h 4.0mph /  6.4km/h 84% 0.00in /  0mm
23:19 69.0 °F /  20.6 °C 63.6 °F /  17.6 °C 30.02in /  1016.5hPa SSW 2.0mph /  3.2km/h 3.0mph /  4.8km/h 83% 0.00in /  0mm
23:24 68.9 °F /  20.5 °C 63.5 °F /  17.5 °C 30.03in /  1016.8hPa Calm   3.0mph /  4.8km/h 83% 0.00in /  0mm
23:29 68.6 °F /  20.3 °C 63.6 °F /  17.6 °C 30.02in /  1016.5hPa SSW 1.0mph /  1.6km/h 3.0mph /  4.8km/h 84% 0.00in /  0mm
23:34 68.2 °F /  20.1 °C 63.2 °F /  17.3 °C 30.02in /  1016.5hPa Calm   1.0mph /  1.6km/h 84% 0.00in /  0mm
23:39 67.7 °F /  19.8 °C 63.0 °F /  17.2 °C 30.02in /  1016.5hPa Calm     85% 0.00in /  0mm
23:44 67.6 °F /  19.8 °C 63.3 °F /  17.4 °C 30.02in /  1016.5hPa Calm     86% 0.00in /  0mm
23:49 67.4 °F /  19.7 °C 63.1 °F /  17.3 °C 30.03in /  1016.8hPa Calm     86% 0.00in /  0mm
23:54 67.4 °F /  19.7 °C 63.1 °F /  17.3 °C 30.03in /  1016.8hPa Calm     86% 0.00in /  0mm
23:59 67.4 °F /  19.7 °C 63.4 °F /  17.4 °C 30.03in /  1016.8hPa Calm     87% 0.00in /  0mm
Buffalo, New York, USA
Compliments of Weather Underground - 2.5 mb